Aérodrome :
LOGIN :

S'inscrire | Disclaimer

   EN    FR    IT 

 










Légende :    VFR   VFR Marginal   IFR   IFR Intensif   IFR Très Intensif
Visi : 
Plafond : 
>= 8 km
>= 3000ft
5 à 8 km
1000 à 3000 ft
1500m à 5 km
500 à 1000 ft
800 à 1500m
200 à 500 ft
< 800m
< 200 ft
Symboles :   Orages  Brouillard  Fortes neiges  Fortes précipitations  Vent > 20 kt
SIGMETs :   Divers  Orages  Givrage  Turbulence  Onde Orograph.  Cendres Volcan.






- Altitude de l'aérodrome : 751 ft
- Code IATA : ENC


LFSN - Nancy Essey

DERNIER METAR :
  • 272130Z AUTO 29013G29KT 250V320 9999 BKN021 BKN030 OVC035 04/01 Q1012

METARs EXPIRÉS :
  • 272100Z AUTO 28015KT 250V310 9999 BKN019 OVC025 04/01 Q1011
  • 272030Z AUTO 28015G26KT 250V320 9999 BKN017 BKN024 OVC029 04/01 Q1010
  • 272000Z AUTO 28015G28KT 250V320 9999 BKN027 OVC041 04/M00 Q1008
  • 271930Z AUTO 28015KT 240V320 9999 BKN024 OVC029 04/M00 Q1007
  • 271900Z AUTO 28015KT 230V320 9999 OVC021 04/M00 Q1006

Prévision TAF périmée.



MET'MAP, la Météo Aéronautique d'un coup d'oeil ! - Copyright ORBIFLY Décembre 2007 - Disclaimer

ORBIFLY MET'MAP TEAM :

Programmation & Développement : Alexandra Zaïnal
Sur une idée originale de : Baudouin d'Aumeries
Assistance à la programmation : Marc-Olivier Méhu
Soutien technique & logistique : Manuel Goepfert

Contact : metmap@orbifly.com




SOURCES & CREDITS :

   NOAA